sensor_id;sensor_type;location;lat;lon;timestamp;P1;durP1;ratioP1;P2;durP2;ratioP2
61393;SDS011;48555;50.952;-0.120;2023-04-08T00:01:13;7.78;;;4.93;;
61393;SDS011;48555;50.952;-0.120;2023-04-08T00:03:38;7.55;;;4.95;;
61393;SDS011;48555;50.952;-0.120;2023-04-08T00:06:04;9.75;;;6.22;;
61393;SDS011;48555;50.952;-0.120;2023-04-08T00:08:29;8.60;;;5.57;;
61393;SDS011;48555;50.952;-0.120;2023-04-08T00:10:55;7.70;;;5.47;;
61393;SDS011;48555;50.952;-0.120;2023-04-08T00:13:20;11.00;;;6.50;;
61393;SDS011;48555;50.952;-0.120;2023-04-08T00:15:46;9.30;;;6.00;;
61393;SDS011;48555;50.952;-0.120;2023-04-08T00:18:12;10.88;;;5.70;;
61393;SDS011;48555;50.952;-0.120;2023-04-08T00:20:39;9.10;;;6.20;;
61393;SDS011;48555;50.952;-0.120;2023-04-08T00:23:04;9.77;;;5.80;;
61393;SDS011;48555;50.952;-0.120;2023-04-08T00:25:30;10.93;;;7.35;;
61393;SDS011;48555;50.952;-0.120;2023-04-08T00:27:55;12.40;;;7.38;;
61393;SDS011;48555;50.952;-0.120;2023-04-08T00:30:20;10.40;;;6.47;;
61393;SDS011;48555;50.952;-0.120;2023-04-08T00:32:46;10.77;;;7.18;;
61393;SDS011;48555;50.952;-0.120;2023-04-08T00:35:11;11.13;;;7.80;;
61393;SDS011;48555;50.952;-0.120;2023-04-08T00:37:37;10.68;;;7.13;;
61393;SDS011;48555;50.952;-0.120;2023-04-08T00:40:02;11.00;;;6.95;;
61393;SDS011;48555;50.952;-0.120;2023-04-08T00:42:28;11.02;;;6.75;;
61393;SDS011;48555;50.952;-0.120;2023-04-08T00:44:55;10.38;;;7.10;;
61393;SDS011;48555;50.952;-0.120;2023-04-08T00:47:20;10.55;;;7.32;;
61393;SDS011;48555;50.952;-0.120;2023-04-08T00:49:46;11.13;;;7.22;;
61393;SDS011;48555;50.952;-0.120;2023-04-08T00:52:12;11.88;;;7.47;;
61393;SDS011;48555;50.952;-0.120;2023-04-08T00:54:37;14.82;;;7.38;;
61393;SDS011;48555;50.952;-0.120;2023-04-08T00:57:03;12.27;;;8.57;;
61393;SDS011;48555;50.952;-0.120;2023-04-08T00:59:29;12.20;;;7.35;;
61393;SDS011;48555;50.952;-0.120;2023-04-08T01:02:13;13.32;;;7.07;;
61393;SDS011;48555;50.952;-0.120;2023-04-08T01:04:51;11.35;;;7.47;;
61393;SDS011;48555;50.952;-0.120;2023-04-08T01:07:24;11.45;;;6.75;;
61393;SDS011;48555;50.952;-0.120;2023-04-08T01:10:06;10.18;;;7.07;;
61393;SDS011;48555;50.952;-0.120;2023-04-08T01:12:40;9.57;;;7.00;;
61393;SDS011;48555;50.952;-0.120;2023-04-08T01:15:07;10.98;;;6.85;;
61393;SDS011;48555;50.952;-0.120;2023-04-08T01:17:35;10.23;;;7.00;;
61393;SDS011;48555;50.952;-0.120;2023-04-08T01:20:02;10.52;;;7.35;;
61393;SDS011;48555;50.952;-0.120;2023-04-08T01:25:23;12.40;;;7.57;;
61393;SDS011;48555;50.952;-0.120;2023-04-08T01:27:53;12.50;;;7.68;;
61393;SDS011;48555;50.952;-0.120;2023-04-08T01:30:22;10.60;;;6.93;;
61393;SDS011;48555;50.952;-0.120;2023-04-08T01:32:49;12.27;;;6.97;;
61393;SDS011;48555;50.952;-0.120;2023-04-08T01:35:17;11.15;;;6.72;;
61393;SDS011;48555;50.952;-0.120;2023-04-08T01:37:42;9.95;;;6.78;;
61393;SDS011;48555;50.952;-0.120;2023-04-08T01:40:11;9.77;;;6.53;;
61393;SDS011;48555;50.952;-0.120;2023-04-08T01:42:36;10.82;;;6.30;;
61393;SDS011;48555;50.952;-0.120;2023-04-08T01:45:02;9.80;;;6.88;;
61393;SDS011;48555;50.952;-0.120;2023-04-08T01:47:30;11.98;;;7.07;;
61393;SDS011;48555;50.952;-0.120;2023-04-08T01:49:55;9.40;;;6.88;;
61393;SDS011;48555;50.952;-0.120;2023-04-08T01:52:22;9.60;;;6.95;;
61393;SDS011;48555;50.952;-0.120;2023-04-08T01:54:50;12.05;;;7.22;;
61393;SDS011;48555;50.952;-0.120;2023-04-08T01:57:18;11.82;;;7.13;;
61393;SDS011;48555;50.952;-0.120;2023-04-08T01:59:51;17.58;;;8.00;;
61393;SDS011;48555;50.952;-0.120;2023-04-08T02:02:20;12.57;;;8.50;;
61393;SDS011;48555;50.952;-0.120;2023-04-08T02:04:48;14.30;;;8.95;;
61393;SDS011;48555;50.952;-0.120;2023-04-08T02:07:14;17.27;;;8.38;;
61393;SDS011;48555;50.952;-0.120;2023-04-08T02:09:40;13.95;;;8.13;;
61393;SDS011;48555;50.952;-0.120;2023-04-08T02:12:06;18.48;;;8.80;;
61393;SDS011;48555;50.952;-0.120;2023-04-08T02:14:31;35.83;;;8.93;;
61393;SDS011;48555;50.952;-0.120;2023-04-08T02:17:10;22.25;;;8.07;;
61393;SDS011;48555;50.952;-0.120;2023-04-08T02:19:40;19.10;;;9.93;;
61393;SDS011;48555;50.952;-0.120;2023-04-08T02:22:16;16.58;;;8.35;;
61393;SDS011;48555;50.952;-0.120;2023-04-08T02:24:47;14.75;;;8.38;;
61393;SDS011;48555;50.952;-0.120;2023-04-08T02:27:14;10.98;;;7.75;;
61393;SDS011;48555;50.952;-0.120;2023-04-08T02:29:41;15.05;;;7.80;;
61393;SDS011;48555;50.952;-0.120;2023-04-08T02:32:07;22.67;;;8.25;;
61393;SDS011;48555;50.952;-0.120;2023-04-08T02:34:34;14.63;;;7.68;;
61393;SDS011;48555;50.952;-0.120;2023-04-08T02:37:03;17.30;;;8.45;;
61393;SDS011;48555;50.952;-0.120;2023-04-08T02:39:31;18.92;;;8.35;;
61393;SDS011;48555;50.952;-0.120;2023-04-08T02:41:57;13.98;;;8.13;;
61393;SDS011;48555;50.952;-0.120;2023-04-08T02:44:22;19.20;;;8.68;;
61393;SDS011;48555;50.952;-0.120;2023-04-08T02:46:48;15.90;;;7.95;;
61393;SDS011;48555;50.952;-0.120;2023-04-08T02:49:13;21.98;;;8.02;;
61393;SDS011;48555;50.952;-0.120;2023-04-08T02:51:39;18.25;;;7.35;;
61393;SDS011;48555;50.952;-0.120;2023-04-08T02:54:04;25.60;;;7.65;;
61393;SDS011;48555;50.952;-0.120;2023-04-08T02:56:29;16.50;;;7.57;;
61393;SDS011;48555;50.952;-0.120;2023-04-08T02:58:55;17.52;;;6.72;;
61393;SDS011;48555;50.952;-0.120;2023-04-08T03:01:20;26.83;;;6.75;;
61393;SDS011;48555;50.952;-0.120;2023-04-08T03:03:46;17.00;;;6.78;;
61393;SDS011;48555;50.952;-0.120;2023-04-08T03:06:11;16.52;;;6.60;;
61393;SDS011;48555;50.952;-0.120;2023-04-08T03:08:36;22.13;;;6.50;;
61393;SDS011;48555;50.952;-0.120;2023-04-08T03:11:02;17.52;;;6.68;;
61393;SDS011;48555;50.952;-0.120;2023-04-08T03:13:27;18.45;;;6.00;;
61393;SDS011;48555;50.952;-0.120;2023-04-08T03:15:53;25.85;;;6.93;;
61393;SDS011;48555;50.952;-0.120;2023-04-08T03:18:19;14.90;;;5.57;;
61393;SDS011;48555;50.952;-0.120;2023-04-08T03:20:45;15.50;;;5.97;;
61393;SDS011;48555;50.952;-0.120;2023-04-08T03:23:10;12.77;;;5.72;;
61393;SDS011;48555;50.952;-0.120;2023-04-08T03:25:36;18.48;;;5.95;;
61393;SDS011;48555;50.952;-0.120;2023-04-08T03:28:01;18.65;;;6.32;;
61393;SDS011;48555;50.952;-0.120;2023-04-08T03:30:27;24.98;;;5.93;;
61393;SDS011;48555;50.952;-0.120;2023-04-08T03:32:52;14.00;;;5.85;;
61393;SDS011;48555;50.952;-0.120;2023-04-08T03:35:17;22.13;;;6.10;;
61393;SDS011;48555;50.952;-0.120;2023-04-08T03:37:43;16.30;;;6.60;;
61393;SDS011;48555;50.952;-0.120;2023-04-08T03:40:08;15.25;;;6.55;;
61393;SDS011;48555;50.952;-0.120;2023-04-08T03:42:34;15.20;;;6.20;;
61393;SDS011;48555;50.952;-0.120;2023-04-08T03:45:00;20.35;;;7.22;;
61393;SDS011;48555;50.952;-0.120;2023-04-08T03:47:26;14.40;;;7.22;;
61393;SDS011;48555;50.952;-0.120;2023-04-08T03:49:52;19.83;;;6.75;;
61393;SDS011;48555;50.952;-0.120;2023-04-08T03:52:18;18.73;;;7.10;;
61393;SDS011;48555;50.952;-0.120;2023-04-08T03:54:44;16.05;;;6.72;;
61393;SDS011;48555;50.952;-0.120;2023-04-08T03:57:09;22.02;;;6.72;;
61393;SDS011;48555;50.952;-0.120;2023-04-08T03:59:36;14.52;;;6.90;;
61393;SDS011;48555;50.952;-0.120;2023-04-08T04:02:01;13.85;;;6.85;;
61393;SDS011;48555;50.952;-0.120;2023-04-08T04:04:26;13.55;;;6.18;;
61393;SDS011;48555;50.952;-0.120;2023-04-08T04:06:52;15.52;;;6.30;;
61393;SDS011;48555;50.952;-0.120;2023-04-08T04:09:17;13.55;;;6.53;;
61393;SDS011;48555;50.952;-0.120;2023-04-08T04:11:42;9.93;;;6.85;;
61393;SDS011;48555;50.952;-0.120;2023-04-08T04:14:08;10.35;;;6.38;;
61393;SDS011;48555;50.952;-0.120;2023-04-08T04:16:33;9.20;;;5.88;;
61393;SDS011;48555;50.952;-0.120;2023-04-08T04:18:59;10.27;;;6.75;;
61393;SDS011;48555;50.952;-0.120;2023-04-08T04:21:24;11.38;;;6.88;;
61393;SDS011;48555;50.952;-0.120;2023-04-08T04:23:49;9.40;;;6.10;;
61393;SDS011;48555;50.952;-0.120;2023-04-08T04:26:15;11.57;;;6.55;;
61393;SDS011;48555;50.952;-0.120;2023-04-08T04:28:40;12.63;;;6.85;;
61393;SDS011;48555;50.952;-0.120;2023-04-08T04:31:05;11.77;;;6.47;;
61393;SDS011;48555;50.952;-0.120;2023-04-08T04:33:31;12.27;;;6.53;;
61393;SDS011;48555;50.952;-0.120;2023-04-08T04:35:56;11.85;;;7.00;;
61393;SDS011;48555;50.952;-0.120;2023-04-08T04:38:22;13.07;;;6.90;;
61393;SDS011;48555;50.952;-0.120;2023-04-08T04:40:47;11.35;;;6.95;;
61393;SDS011;48555;50.952;-0.120;2023-04-08T04:43:12;11.23;;;6.85;;
61393;SDS011;48555;50.952;-0.120;2023-04-08T04:45:38;10.20;;;6.05;;
61393;SDS011;48555;50.952;-0.120;2023-04-08T04:48:03;10.93;;;6.47;;
61393;SDS011;48555;50.952;-0.120;2023-04-08T04:50:29;11.95;;;6.13;;
61393;SDS011;48555;50.952;-0.120;2023-04-08T04:52:54;13.07;;;6.65;;
61393;SDS011;48555;50.952;-0.120;2023-04-08T04:55:20;11.68;;;6.45;;
61393;SDS011;48555;50.952;-0.120;2023-04-08T04:57:46;11.18;;;6.95;;
61393;SDS011;48555;50.952;-0.120;2023-04-08T05:00:12;10.05;;;6.22;;
61393;SDS011;48555;50.952;-0.120;2023-04-08T05:02:38;11.32;;;6.75;;
61393;SDS011;48555;50.952;-0.120;2023-04-08T05:05:04;10.65;;;6.57;;
61393;SDS011;48555;50.952;-0.120;2023-04-08T05:07:30;11.02;;;6.65;;
61393;SDS011;48555;50.952;-0.120;2023-04-08T05:09:55;11.10;;;6.47;;
61393;SDS011;48555;50.952;-0.120;2023-04-08T05:12:20;10.32;;;6.30;;
61393;SDS011;48555;50.952;-0.120;2023-04-08T05:14:46;11.93;;;6.82;;
61393;SDS011;48555;50.952;-0.120;2023-04-08T05:17:11;11.40;;;6.78;;
61393;SDS011;48555;50.952;-0.120;2023-04-08T05:19:36;10.15;;;5.85;;
61393;SDS011;48555;50.952;-0.120;2023-04-08T05:22:02;10.35;;;6.05;;
61393;SDS011;48555;50.952;-0.120;2023-04-08T05:24:27;8.80;;;5.65;;
61393;SDS011;48555;50.952;-0.120;2023-04-08T05:26:52;11.45;;;5.75;;
61393;SDS011;48555;50.952;-0.120;2023-04-08T05:29:18;10.35;;;6.32;;
61393;SDS011;48555;50.952;-0.120;2023-04-08T05:31:45;10.02;;;5.70;;
61393;SDS011;48555;50.952;-0.120;2023-04-08T05:34:11;9.43;;;5.85;;
61393;SDS011;48555;50.952;-0.120;2023-04-08T05:36:37;9.75;;;5.82;;
61393;SDS011;48555;50.952;-0.120;2023-04-08T05:39:02;9.98;;;5.78;;
61393;SDS011;48555;50.952;-0.120;2023-04-08T05:41:27;11.00;;;6.05;;
61393;SDS011;48555;50.952;-0.120;2023-04-08T05:43:53;10.20;;;6.18;;
61393;SDS011;48555;50.952;-0.120;2023-04-08T05:46:18;8.57;;;5.70;;
61393;SDS011;48555;50.952;-0.120;2023-04-08T05:48:43;9.27;;;6.00;;
61393;SDS011;48555;50.952;-0.120;2023-04-08T05:51:12;9.70;;;5.97;;
61393;SDS011;48555;50.952;-0.120;2023-04-08T05:53:38;11.43;;;6.20;;
61393;SDS011;48555;50.952;-0.120;2023-04-08T05:56:04;10.60;;;6.20;;
61393;SDS011;48555;50.952;-0.120;2023-04-08T05:58:29;10.32;;;6.35;;
61393;SDS011;48555;50.952;-0.120;2023-04-08T06:00:54;10.55;;;6.20;;
61393;SDS011;48555;50.952;-0.120;2023-04-08T06:03:20;11.88;;;6.95;;
61393;SDS011;48555;50.952;-0.120;2023-04-08T06:05:45;13.05;;;7.03;;
61393;SDS011;48555;50.952;-0.120;2023-04-08T06:08:11;12.57;;;7.25;;
61393;SDS011;48555;50.952;-0.120;2023-04-08T06:10:36;11.25;;;7.15;;
61393;SDS011;48555;50.952;-0.120;2023-04-08T06:13:01;10.55;;;6.65;;
61393;SDS011;48555;50.952;-0.120;2023-04-08T06:15:27;10.93;;;6.65;;
61393;SDS011;48555;50.952;-0.120;2023-04-08T06:17:52;11.02;;;6.35;;
61393;SDS011;48555;50.952;-0.120;2023-04-08T06:20:18;8.85;;;5.95;;
61393;SDS011;48555;50.952;-0.120;2023-04-08T06:22:43;8.98;;;6.30;;
61393;SDS011;48555;50.952;-0.120;2023-04-08T06:25:08;8.55;;;5.20;;
61393;SDS011;48555;50.952;-0.120;2023-04-08T06:27:34;9.18;;;5.25;;
61393;SDS011;48555;50.952;-0.120;2023-04-08T06:29:59;8.10;;;5.70;;
61393;SDS011;48555;50.952;-0.120;2023-04-08T06:32:24;9.15;;;5.30;;
61393;SDS011;48555;50.952;-0.120;2023-04-08T06:34:50;8.52;;;5.50;;
61393;SDS011;48555;50.952;-0.120;2023-04-08T06:37:15;7.93;;;5.85;;
61393;SDS011;48555;50.952;-0.120;2023-04-08T06:39:40;10.10;;;5.00;;
61393;SDS011;48555;50.952;-0.120;2023-04-08T06:42:06;6.82;;;4.72;;
61393;SDS011;48555;50.952;-0.120;2023-04-08T06:44:31;8.30;;;4.88;;
61393;SDS011;48555;50.952;-0.120;2023-04-08T06:46:56;6.28;;;4.22;;
61393;SDS011;48555;50.952;-0.120;2023-04-08T06:49:22;7.65;;;4.35;;
61393;SDS011;48555;50.952;-0.120;2023-04-08T06:51:47;8.15;;;4.95;;
61393;SDS011;48555;50.952;-0.120;2023-04-08T06:54:13;8.15;;;5.10;;
61393;SDS011;48555;50.952;-0.120;2023-04-08T06:56:38;7.65;;;4.80;;
61393;SDS011;48555;50.952;-0.120;2023-04-08T06:59:03;8.02;;;4.55;;
61393;SDS011;48555;50.952;-0.120;2023-04-08T07:01:29;7.38;;;4.93;;
61393;SDS011;48555;50.952;-0.120;2023-04-08T07:03:56;7.30;;;4.60;;
61393;SDS011;48555;50.952;-0.120;2023-04-08T07:06:21;7.55;;;4.63;;
61393;SDS011;48555;50.952;-0.120;2023-04-08T07:08:46;8.57;;;4.82;;
61393;SDS011;48555;50.952;-0.120;2023-04-08T07:11:12;8.80;;;4.75;;
61393;SDS011;48555;50.952;-0.120;2023-04-08T07:13:37;10.98;;;5.43;;
61393;SDS011;48555;50.952;-0.120;2023-04-08T07:16:03;8.00;;;5.38;;
61393;SDS011;48555;50.952;-0.120;2023-04-08T07:18:28;8.23;;;5.47;;
61393;SDS011;48555;50.952;-0.120;2023-04-08T07:20:54;9.35;;;5.47;;
61393;SDS011;48555;50.952;-0.120;2023-04-08T07:23:19;9.02;;;5.45;;
61393;SDS011;48555;50.952;-0.120;2023-04-08T07:25:45;9.90;;;5.07;;
61393;SDS011;48555;50.952;-0.120;2023-04-08T07:28:11;8.43;;;4.60;;
61393;SDS011;48555;50.952;-0.120;2023-04-08T07:30:37;7.40;;;4.80;;
61393;SDS011;48555;50.952;-0.120;2023-04-08T07:33:02;7.88;;;4.95;;
61393;SDS011;48555;50.952;-0.120;2023-04-08T07:35:27;7.85;;;4.55;;
61393;SDS011;48555;50.952;-0.120;2023-04-08T07:37:53;8.00;;;4.60;;
61393;SDS011;48555;50.952;-0.120;2023-04-08T07:40:19;10.07;;;4.53;;
61393;SDS011;48555;50.952;-0.120;2023-04-08T07:42:45;7.68;;;4.68;;
61393;SDS011;48555;50.952;-0.120;2023-04-08T07:45:11;9.57;;;4.55;;
61393;SDS011;48555;50.952;-0.120;2023-04-08T07:47:36;8.65;;;4.40;;
61393;SDS011;48555;50.952;-0.120;2023-04-08T07:50:02;7.68;;;4.38;;
61393;SDS011;48555;50.952;-0.120;2023-04-08T07:52:30;7.45;;;4.95;;
61393;SDS011;48555;50.952;-0.120;2023-04-08T07:54:56;10.73;;;4.90;;
61393;SDS011;48555;50.952;-0.120;2023-04-08T07:57:21;9.77;;;5.40;;
61393;SDS011;48555;50.952;-0.120;2023-04-08T07:59:46;9.05;;;5.20;;
61393;SDS011;48555;50.952;-0.120;2023-04-08T08:02:12;8.05;;;4.93;;
61393;SDS011;48555;50.952;-0.120;2023-04-08T08:04:37;8.95;;;5.25;;
61393;SDS011;48555;50.952;-0.120;2023-04-08T08:07:02;9.20;;;5.15;;
61393;SDS011;48555;50.952;-0.120;2023-04-08T08:09:28;9.90;;;5.00;;
61393;SDS011;48555;50.952;-0.120;2023-04-08T08:11:53;8.98;;;5.20;;
61393;SDS011;48555;50.952;-0.120;2023-04-08T08:14:18;9.25;;;5.65;;
61393;SDS011;48555;50.952;-0.120;2023-04-08T08:16:44;11.82;;;5.93;;
61393;SDS011;48555;50.952;-0.120;2023-04-08T08:19:09;8.07;;;5.15;;
61393;SDS011;48555;50.952;-0.120;2023-04-08T08:21:36;9.25;;;5.63;;
61393;SDS011;48555;50.952;-0.120;2023-04-08T08:24:01;9.93;;;6.20;;
61393;SDS011;48555;50.952;-0.120;2023-04-08T08:26:27;10.15;;;5.85;;
61393;SDS011;48555;50.952;-0.120;2023-04-08T08:28:52;11.75;;;5.88;;
61393;SDS011;48555;50.952;-0.120;2023-04-08T08:31:18;9.52;;;5.57;;
61393;SDS011;48555;50.952;-0.120;2023-04-08T08:33:43;9.82;;;5.38;;
61393;SDS011;48555;50.952;-0.120;2023-04-08T08:36:09;9.40;;;5.43;;
61393;SDS011;48555;50.952;-0.120;2023-04-08T08:38:34;10.07;;;5.00;;
61393;SDS011;48555;50.952;-0.120;2023-04-08T08:41:00;9.98;;;4.75;;
61393;SDS011;48555;50.952;-0.120;2023-04-08T08:43:26;10.30;;;4.78;;
61393;SDS011;48555;50.952;-0.120;2023-04-08T08:45:52;10.05;;;4.10;;
61393;SDS011;48555;50.952;-0.120;2023-04-08T08:48:18;9.52;;;4.95;;
61393;SDS011;48555;50.952;-0.120;2023-04-08T08:50:44;9.48;;;4.25;;
61393;SDS011;48555;50.952;-0.120;2023-04-08T08:53:10;7.57;;;4.45;;
61393;SDS011;48555;50.952;-0.120;2023-04-08T08:55:35;10.05;;;4.60;;
61393;SDS011;48555;50.952;-0.120;2023-04-08T08:58:02;11.23;;;4.03;;
61393;SDS011;48555;50.952;-0.120;2023-04-08T09:00:38;7.68;;;3.80;;
61393;SDS011;48555;50.952;-0.120;2023-04-08T09:05:50;7.93;;;3.67;;
61393;SDS011;48555;50.952;-0.120;2023-04-08T09:08:58;7.50;;;4.00;;
61393;SDS011;48555;50.952;-0.120;2023-04-08T09:11:15;8.25;;;3.60;;
61393;SDS011;48555;50.952;-0.120;2023-04-08T09:13:42;8.80;;;3.58;;
61393;SDS011;48555;50.952;-0.120;2023-04-08T09:16:09;5.80;;;3.22;;
61393;SDS011;48555;50.952;-0.120;2023-04-08T09:18:36;7.45;;;3.45;;
61393;SDS011;48555;50.952;-0.120;2023-04-08T09:21:03;15.88;;;3.50;;
61393;SDS011;48555;50.952;-0.120;2023-04-08T09:23:36;5.68;;;3.40;;
61393;SDS011;48555;50.952;-0.120;2023-04-08T09:26:09;9.85;;;3.72;;
61393;SDS011;48555;50.952;-0.120;2023-04-08T09:28:36;6.35;;;3.25;;
61393;SDS011;48555;50.952;-0.120;2023-04-08T09:31:19;8.15;;;3.70;;
61393;SDS011;48555;50.952;-0.120;2023-04-08T09:33:49;9.90;;;3.78;;
61393;SDS011;48555;50.952;-0.120;2023-04-08T09:36:16;7.15;;;4.30;;
61393;SDS011;48555;50.952;-0.120;2023-04-08T09:38:43;6.45;;;3.63;;
61393;SDS011;48555;50.952;-0.120;2023-04-08T09:41:12;8.60;;;4.22;;
61393;SDS011;48555;50.952;-0.120;2023-04-08T09:43:43;9.27;;;4.40;;
61393;SDS011;48555;50.952;-0.120;2023-04-08T09:46:16;5.97;;;3.90;;
61393;SDS011;48555;50.952;-0.120;2023-04-08T09:48:48;6.35;;;3.85;;
61393;SDS011;48555;50.952;-0.120;2023-04-08T09:51:15;8.77;;;4.20;;
61393;SDS011;48555;50.952;-0.120;2023-04-08T09:53:47;5.75;;;3.47;;
61393;SDS011;48555;50.952;-0.120;2023-04-08T09:56:17;6.95;;;4.22;;
61393;SDS011;48555;50.952;-0.120;2023-04-08T09:58:59;7.78;;;3.90;;
61393;SDS011;48555;50.952;-0.120;2023-04-08T10:01:31;7.50;;;4.25;;
61393;SDS011;48555;50.952;-0.120;2023-04-08T10:04:04;7.13;;;4.00;;
61393;SDS011;48555;50.952;-0.120;2023-04-08T10:06:33;7.97;;;3.97;;
61393;SDS011;48555;50.952;-0.120;2023-04-08T10:09:00;6.63;;;3.28;;
61393;SDS011;48555;50.952;-0.120;2023-04-08T10:11:26;6.82;;;3.20;;
61393;SDS011;48555;50.952;-0.120;2023-04-08T10:13:52;6.05;;;3.30;;
61393;SDS011;48555;50.952;-0.120;2023-04-08T10:16:24;6.43;;;3.15;;
61393;SDS011;48555;50.952;-0.120;2023-04-08T10:18:51;5.22;;;2.95;;
61393;SDS011;48555;50.952;-0.120;2023-04-08T10:24:01;6.05;;;3.53;;
61393;SDS011;48555;50.952;-0.120;2023-04-08T10:26:40;5.47;;;3.30;;
61393;SDS011;48555;50.952;-0.120;2023-04-08T10:29:52;4.97;;;3.03;;
61393;SDS011;48555;50.952;-0.120;2023-04-08T10:31:52;7.72;;;3.53;;
61393;SDS011;48555;50.952;-0.120;2023-04-08T10:34:18;6.10;;;3.40;;
61393;SDS011;48555;50.952;-0.120;2023-04-08T10:36:44;5.75;;;3.35;;
61393;SDS011;48555;50.952;-0.120;2023-04-08T10:39:10;5.72;;;3.00;;
61393;SDS011;48555;50.952;-0.120;2023-04-08T10:41:40;5.97;;;3.10;;
61393;SDS011;48555;50.952;-0.120;2023-04-08T10:44:25;5.85;;;3.20;;
61393;SDS011;48555;50.952;-0.120;2023-04-08T10:46:51;8.07;;;3.47;;
61393;SDS011;48555;50.952;-0.120;2023-04-08T10:49:18;6.25;;;3.55;;
61393;SDS011;48555;50.952;-0.120;2023-04-08T10:51:44;6.70;;;3.28;;
61393;SDS011;48555;50.952;-0.120;2023-04-08T10:54:11;7.18;;;3.40;;
61393;SDS011;48555;50.952;-0.120;2023-04-08T10:56:47;7.90;;;3.45;;
61393;SDS011;48555;50.952;-0.120;2023-04-08T10:59:17;7.78;;;3.20;;
61393;SDS011;48555;50.952;-0.120;2023-04-08T11:01:51;6.07;;;3.30;;
61393;SDS011;48555;50.952;-0.120;2023-04-08T11:04:17;8.50;;;2.75;;
61393;SDS011;48555;50.952;-0.120;2023-04-08T11:06:43;8.98;;;3.45;;
61393;SDS011;48555;50.952;-0.120;2023-04-08T11:09:10;5.70;;;3.20;;
61393;SDS011;48555;50.952;-0.120;2023-04-08T11:11:36;5.20;;;3.00;;
61393;SDS011;48555;50.952;-0.120;2023-04-08T11:14:02;5.47;;;3.03;;
61393;SDS011;48555;50.952;-0.120;2023-04-08T11:16:28;7.88;;;3.40;;
61393;SDS011;48555;50.952;-0.120;2023-04-08T11:18:53;6.45;;;3.30;;
61393;SDS011;48555;50.952;-0.120;2023-04-08T11:21:23;6.28;;;3.05;;
61393;SDS011;48555;50.952;-0.120;2023-04-08T11:23:53;6.10;;;3.20;;
61393;SDS011;48555;50.952;-0.120;2023-04-08T11:26:19;7.32;;;3.67;;
61393;SDS011;48555;50.952;-0.120;2023-04-08T11:28:45;6.68;;;3.03;;
61393;SDS011;48555;50.952;-0.120;2023-04-08T11:31:14;6.40;;;3.10;;
61393;SDS011;48555;50.952;-0.120;2023-04-08T11:33:43;6.63;;;3.17;;
61393;SDS011;48555;50.952;-0.120;2023-04-08T11:36:12;6.45;;;3.58;;
61393;SDS011;48555;50.952;-0.120;2023-04-08T11:38:38;6.88;;;3.95;;
61393;SDS011;48555;50.952;-0.120;2023-04-08T11:41:07;8.00;;;3.80;;
61393;SDS011;48555;50.952;-0.120;2023-04-08T11:43:33;8.13;;;4.00;;
61393;SDS011;48555;50.952;-0.120;2023-04-08T11:46:06;8.98;;;4.20;;
61393;SDS011;48555;50.952;-0.120;2023-04-08T11:48:33;6.30;;;3.85;;
61393;SDS011;48555;50.952;-0.120;2023-04-08T11:51:05;6.82;;;3.78;;
61393;SDS011;48555;50.952;-0.120;2023-04-08T11:53:36;6.38;;;3.50;;
61393;SDS011;48555;50.952;-0.120;2023-04-08T11:56:14;6.50;;;3.30;;
61393;SDS011;48555;50.952;-0.120;2023-04-08T11:58:43;5.63;;;2.92;;
61393;SDS011;48555;50.952;-0.120;2023-04-08T12:01:08;7.55;;;3.53;;
61393;SDS011;48555;50.952;-0.120;2023-04-08T12:03:34;6.63;;;3.45;;
61393;SDS011;48555;50.952;-0.120;2023-04-08T12:05:59;7.07;;;3.40;;
61393;SDS011;48555;50.952;-0.120;2023-04-08T12:08:25;7.22;;;3.17;;
61393;SDS011;48555;50.952;-0.120;2023-04-08T12:10:50;6.75;;;3.20;;
61393;SDS011;48555;50.952;-0.120;2023-04-08T12:13:15;8.07;;;3.40;;
61393;SDS011;48555;50.952;-0.120;2023-04-08T12:15:41;6.90;;;3.03;;
61393;SDS011;48555;50.952;-0.120;2023-04-08T12:18:06;6.10;;;2.97;;
61393;SDS011;48555;50.952;-0.120;2023-04-08T12:20:32;7.93;;;3.42;;
61393;SDS011;48555;50.952;-0.120;2023-04-08T12:22:57;6.82;;;3.00;;
61393;SDS011;48555;50.952;-0.120;2023-04-08T12:25:22;6.78;;;3.35;;
61393;SDS011;48555;50.952;-0.120;2023-04-08T12:27:47;6.95;;;3.00;;
61393;SDS011;48555;50.952;-0.120;2023-04-08T12:30:13;5.53;;;3.35;;
61393;SDS011;48555;50.952;-0.120;2023-04-08T12:32:38;7.53;;;2.97;;
61393;SDS011;48555;50.952;-0.120;2023-04-08T12:35:05;6.57;;;3.13;;
61393;SDS011;48555;50.952;-0.120;2023-04-08T12:37:30;6.18;;;3.60;;
61393;SDS011;48555;50.952;-0.120;2023-04-08T12:39:57;6.07;;;3.20;;
61393;SDS011;48555;50.952;-0.120;2023-04-08T12:42:22;5.95;;;3.47;;
61393;SDS011;48555;50.952;-0.120;2023-04-08T12:44:47;7.70;;;3.70;;
61393;SDS011;48555;50.952;-0.120;2023-04-08T12:47:13;5.82;;;3.80;;
61393;SDS011;48555;50.952;-0.120;2023-04-08T12:49:38;7.47;;;3.83;;
61393;SDS011;48555;50.952;-0.120;2023-04-08T12:52:04;7.90;;;3.97;;
61393;SDS011;48555;50.952;-0.120;2023-04-08T12:54:29;6.82;;;3.75;;
61393;SDS011;48555;50.952;-0.120;2023-04-08T12:56:55;6.65;;;3.50;;
61393;SDS011;48555;50.952;-0.120;2023-04-08T12:59:21;6.18;;;3.28;;
61393;SDS011;48555;50.952;-0.120;2023-04-08T13:01:46;7.93;;;3.90;;
61393;SDS011;48555;50.952;-0.120;2023-04-08T13:04:12;7.85;;;3.20;;
61393;SDS011;48555;50.952;-0.120;2023-04-08T13:06:37;4.80;;;3.08;;
61393;SDS011;48555;50.952;-0.120;2023-04-08T13:09:02;6.57;;;3.40;;
61393;SDS011;48555;50.952;-0.120;2023-04-08T13:11:28;6.95;;;3.50;;
61393;SDS011;48555;50.952;-0.120;2023-04-08T13:13:53;4.10;;;2.90;;
61393;SDS011;48555;50.952;-0.120;2023-04-08T13:16:18;10.07;;;3.22;;
61393;SDS011;48555;50.952;-0.120;2023-04-08T13:18:44;6.18;;;2.85;;
61393;SDS011;48555;50.952;-0.120;2023-04-08T13:21:09;7.32;;;3.20;;
61393;SDS011;48555;50.952;-0.120;2023-04-08T13:23:35;4.78;;;2.90;;
61393;SDS011;48555;50.952;-0.120;2023-04-08T13:26:00;3.80;;;2.80;;
61393;SDS011;48555;50.952;-0.120;2023-04-08T13:28:26;6.50;;;2.88;;
61393;SDS011;48555;50.952;-0.120;2023-04-08T13:30:51;5.60;;;2.95;;
61393;SDS011;48555;50.952;-0.120;2023-04-08T13:33:17;6.15;;;3.05;;
61393;SDS011;48555;50.952;-0.120;2023-04-08T13:35:43;7.03;;;3.63;;
61393;SDS011;48555;50.952;-0.120;2023-04-08T13:38:08;6.72;;;3.50;;
61393;SDS011;48555;50.952;-0.120;2023-04-08T13:40:34;6.35;;;3.28;;
61393;SDS011;48555;50.952;-0.120;2023-04-08T13:42:59;5.10;;;3.28;;
61393;SDS011;48555;50.952;-0.120;2023-04-08T13:45:25;6.35;;;3.70;;
61393;SDS011;48555;50.952;-0.120;2023-04-08T13:47:51;5.72;;;3.05;;
61393;SDS011;48555;50.952;-0.120;2023-04-08T13:50:16;7.28;;;3.10;;
61393;SDS011;48555;50.952;-0.120;2023-04-08T13:52:41;4.80;;;3.38;;
61393;SDS011;48555;50.952;-0.120;2023-04-08T13:55:07;5.43;;;2.90;;
61393;SDS011;48555;50.952;-0.120;2023-04-08T13:57:32;7.78;;;3.20;;
61393;SDS011;48555;50.952;-0.120;2023-04-08T13:59:58;5.60;;;3.00;;
61393;SDS011;48555;50.952;-0.120;2023-04-08T14:02:23;6.32;;;3.22;;
61393;SDS011;48555;50.952;-0.120;2023-04-08T14:04:48;5.25;;;2.70;;
61393;SDS011;48555;50.952;-0.120;2023-04-08T14:07:14;4.97;;;2.88;;
61393;SDS011;48555;50.952;-0.120;2023-04-08T14:09:39;4.50;;;2.63;;
61393;SDS011;48555;50.952;-0.120;2023-04-08T14:12:04;5.07;;;2.80;;
61393;SDS011;48555;50.952;-0.120;2023-04-08T14:14:30;3.90;;;2.33;;
61393;SDS011;48555;50.952;-0.120;2023-04-08T14:16:55;6.47;;;3.17;;
61393;SDS011;48555;50.952;-0.120;2023-04-08T14:19:21;5.13;;;3.08;;
61393;SDS011;48555;50.952;-0.120;2023-04-08T14:21:46;4.18;;;2.83;;
61393;SDS011;48555;50.952;-0.120;2023-04-08T14:24:11;5.53;;;3.40;;
61393;SDS011;48555;50.952;-0.120;2023-04-08T14:26:37;6.85;;;3.20;;
61393;SDS011;48555;50.952;-0.120;2023-04-08T14:29:03;4.63;;;2.85;;
61393;SDS011;48555;50.952;-0.120;2023-04-08T14:31:29;4.82;;;2.80;;
61393;SDS011;48555;50.952;-0.120;2023-04-08T14:33:56;3.78;;;2.60;;